Time;durP1;ratioP1;P1;durP2;ratioP2;P2;SDS_P1;SDS_P2;PMS_P1;PMS_P2;Temp;Humidity;BMP_temperature;BMP_pressure;BME280_temperature;BME280_humidity;BME280_pressure;Samples;Min_cycle;Max_cycle;Signal;HPM_P1;HPM_P2
2023/03/02 00:02:22;;;;;;;14.48;6.18;;;1.50;99.90;;;;;;5049424;28;20414;-74
2023/03/02 00:04:53;;;;;;;10.90;4.88;;;1.50;99.90;;;;;;4968159;28;20031;-74
2023/03/02 00:07:27;;;;;;;12.13;3.83;;;1.50;99.90;;;;;;5037337;28;20126;-75
2023/03/02 00:09:54;;;;;;;10.00;4.32;;;1.60;99.70;;;;;;5031360;28;20033;-73
2023/03/02 00:12:19;;;;;;;8.88;4.45;;;1.70;97.70;;;;;;5049337;28;20110;-75
2023/03/02 00:14:45;;;;;;;;;;;1.80;94.80;;;;;;5049654;28;20067;-75
2023/03/02 00:17:11;;;;;;;9.43;3.80;;;1.90;94.80;;;;;;5031332;28;19909;-74
2023/03/02 00:19:37;;;;;;;8.35;3.88;;;1.80;95.60;;;;;;5049233;28;20186;-73
2023/03/02 00:22:04;;;;;;;15.00;4.78;;;1.90;94.10;;;;;;5049013;28;20029;-74
2023/03/02 00:24:29;;;;;;;9.00;4.10;;;1.90;92.30;;;;;;5031254;28;20219;-76
2023/03/02 00:26:55;;;;;;;;;;;1.80;91.10;;;;;;5048208;28;20486;-77
2023/03/02 00:29:21;;;;;;;10.65;4.28;;;1.80;90.60;;;;;;5047533;28;19920;-74
2023/03/02 00:31:46;;;;;;;;;;;1.70;89.30;;;;;;5047873;28;20346;-74
2023/03/02 00:34:12;;;;;;;5.97;2.40;;;1.70;85.10;;;;;;5030912;28;19912;-74
2023/03/02 00:36:37;;;;;;;8.30;2.00;;;1.80;74.90;;;;;;5048959;28;20116;-74
2023/03/02 00:39:03;;;;;;;;;;;1.90;71.50;;;;;;5047708;28;20029;-74
2023/03/02 00:41:29;;;;;;;7.30;2.40;;;1.90;71.20;;;;;;5047564;28;20042;-74
2023/03/02 00:43:55;;;;;;;;;;;2.00;71.70;;;;;;5047814;28;20107;-74
2023/03/02 00:46:23;;;;;;;12.13;4.57;;;1.90;72.60;;;;;;5047321;28;20042;-74
2023/03/02 00:48:49;;;;;;;9.48;2.72;;;1.80;71.90;;;;;;5048517;28;20128;-74
2023/03/02 00:51:16;;;;;;;6.60;2.40;;;1.80;71.50;;;;;;5030852;28;20378;-74
2023/03/02 00:53:42;;;;;;;12.23;2.90;;;1.80;73.80;;;;;;5048702;28;20095;-73
2023/03/02 00:56:08;;;;;;;6.80;2.20;;;1.80;74.10;;;;;;5048646;28;20017;-74
2023/03/02 00:58:34;;;;;;;;;;;1.70;74.50;;;;;;5048795;28;20032;-74
2023/03/02 01:01:08;;;;;;;6.40;2.20;;;1.80;73.10;;;;;;5030913;28;19912;-74
2023/03/02 01:03:35;;;;;;;5.22;2.35;;;1.80;71.60;;;;;;5030592;28;20029;-74
2023/03/02 01:06:01;;;;;;;9.20;2.63;;;1.80;71.90;;;;;;5048545;28;20063;-75
2023/03/02 01:08:26;;;;;;;;;;;1.70;72.20;;;;;;5048731;28;20548;-74
2023/03/02 01:10:52;;;;;;;6.20;2.28;;;1.70;73.30;;;;;;5030449;28;19957;-75
2023/03/02 01:13:18;;;;;;;;;;;1.70;73.60;;;;;;5048791;28;20108;-75
2023/03/02 01:15:44;;;;;;;6.90;2.78;;;1.60;75.50;;;;;;5030263;28;19905;-76
2023/03/02 01:18:10;;;;;;;;;;;1.50;74.90;;;;;;5030817;28;20040;-74
2023/03/02 01:20:36;;;;;;;6.68;2.65;;;1.50;74.80;;;;;;5048128;28;20436;-74
2023/03/02 01:23:01;;;;;;;;;;;1.40;76.30;;;;;;5048677;28;20032;-74
2023/03/02 01:25:27;;;;;;;6.47;2.35;;;1.30;78.20;;;;;;5048217;28;19934;-74
2023/03/02 01:27:53;;;;;;;;;;;1.30;79.30;;;;;;5048254;28;20037;-75
2023/03/02 01:30:18;;;;;;;4.95;2.03;;;1.20;82.90;;;;;;5030228;28;19908;-74
2023/03/02 01:32:44;;;;;;;;;;;1.10;82.70;;;;;;5047241;28;20029;-74
2023/03/02 01:35:10;;;;;;;5.78;1.80;;;1.10;84.00;;;;;;5047185;28;19983;-75
2023/03/02 01:37:35;;;;;;;;;;;1.00;84.50;;;;;;5048695;28;20493;-75
2023/03/02 01:40:05;;;;;;;4.07;1.58;;;1.00;85.50;;;;;;5046546;28;19920;-75
2023/03/02 01:42:44;;;;;;;4.35;1.45;;;1.00;85.00;;;;;;5029989;28;20033;-76
2023/03/02 01:45:45;;;;;;;6.88;2.88;;;1.10;85.40;;;;;;5048041;28;20106;-76
2023/03/02 01:48:14;;;;;;;3.75;1.55;;;1.10;84.00;;;;;;5030010;28;20061;-76
2023/03/02 01:50:40;;;;;;;5.25;1.77;;;1.10;84.50;;;;;;5030010;28;20041;-74
2023/03/02 01:53:06;;;;;;;;;;;1.10;85.30;;;;;;5046820;28;20028;-75
2023/03/02 01:55:33;;;;;;;4.22;1.55;;;1.10;86.30;;;;;;5030187;28;19909;-75
2023/03/02 01:58:01;;;;;;;3.53;1.40;;;1.10;87.70;;;;;;5030115;28;20041;-74
2023/03/02 02:00:32;;;;;;;4.90;1.65;;;1.10;89.70;;;;;;5047704;28;20476;-74
2023/03/02 02:03:07;;;;;;;4.40;1.73;;;1.10;91.00;;;;;;5030005;28;20025;-74
2023/03/02 02:05:35;;;;;;;5.30;2.33;;;1.00;91.90;;;;;;5029945;28;20116;-74
2023/03/02 02:08:01;;;;;;;5.88;2.45;;;1.00;92.20;;;;;;5047650;28;20495;-75
2023/03/02 02:10:27;;;;;;;;;;;0.90;92.60;;;;;;5048236;28;20108;-75
2023/03/02 02:12:52;;;;;;;6.03;2.20;;;0.90;94.10;;;;;;5047716;28;20351;-74
2023/03/02 02:15:18;;;;;;;;;;;0.90;94.70;;;;;;5048230;28;20025;-75
2023/03/02 02:17:43;;;;;;;6.00;2.15;;;0.90;96.40;;;;;;5046430;28;19963;-74
2023/03/02 02:20:09;;;;;;;;;;;0.90;96.20;;;;;;5046881;28;20068;-74
2023/03/02 02:22:50;;;;;;;5.47;2.25;;;1.00;97.10;;;;;;5033132;28;19915;-74
2023/03/02 02:25:43;;;;;;;5.28;1.80;;;1.00;98.10;;;;;;5051186;28;20075;-75
2023/03/02 02:28:41;;;;;;;6.85;2.67;;;1.00;98.60;;;;;;5016326;28;20071;-74
2023/03/02 02:31:25;;;;;;;;;;;1.00;98.40;;;;;;5050976;28;20108;-74
2023/03/02 02:33:57;;;;;;;5.88;2.15;;;1.00;98.50;;;;;;5033094;28;20304;-74
2023/03/02 02:36:31;;;;;;;5.43;2.40;;;1.10;98.20;;;;;;5050979;28;20032;-74
2023/03/02 02:39:01;;;;;;;8.48;2.38;;;1.10;98.30;;;;;;5050997;28;20024;-74
2023/03/02 02:41:32;;;;;;;10.05;2.40;;;1.10;97.40;;;;;;5033240;28;20555;-74
2023/03/02 02:43:58;;;;;;;8.30;1.80;;;1.10;97.20;;;;;;5033051;28;20094;-74
2023/03/02 02:46:26;;;;;;;4.22;1.85;;;1.20;96.10;;;;;;5050045;28;20076;-74
2023/03/02 02:48:52;;;;;;;4.70;2.35;;;1.20;95.10;;;;;;5050395;28;20047;-74
2023/03/02 02:51:24;;;;;;;6.55;2.30;;;1.20;95.80;;;;;;5050797;28;20025;-74
2023/03/02 02:53:58;;;;;;;5.45;2.78;;;1.30;94.10;;;;;;5050958;28;20049;-74
2023/03/02 02:56:30;;;;;;;7.28;2.38;;;1.20;93.40;;;;;;5032821;28;20158;-74
2023/03/02 02:59:01;;;;;;;6.95;2.55;;;1.30;93.10;;;;;;5032276;28;20033;-75
2023/03/02 03:01:27;;;;;;;5.60;1.98;;;1.30;93.70;;;;;;5032699;28;20405;-74
2023/03/02 03:03:56;;;;;;;;;;;1.30;93.20;;;;;;5049485;28;20025;-74
2023/03/02 03:06:36;;;;;;;6.20;2.05;;;1.30;92.90;;;;;;5050645;28;19904;-75
2023/03/02 03:09:04;;;;;;;5.85;2.08;;;1.30;94.00;;;;;;5050478;28;20052;-74
2023/03/02 03:11:37;;;;;;;6.95;2.25;;;1.30;93.30;;;;;;5050674;28;20080;-75
2023/03/02 03:14:11;;;;;;;6.88;2.58;;;1.30;91.30;;;;;;5032531;28;20508;-74
2023/03/02 03:16:39;;;;;;;6.70;2.50;;;1.40;91.10;;;;;;5050304;28;20028;-74
2023/03/02 03:19:27;;;;;;;8.27;2.88;;;1.30;90.20;;;;;;5032458;28;20033;-74
2023/03/02 03:21:56;;;;;;;5.40;2.30;;;1.40;90.00;;;;;;5050404;28;20078;-74
2023/03/02 03:24:22;;;;;;;4.53;1.70;;;1.40;89.90;;;;;;5032418;28;20568;-74
2023/03/02 03:26:47;;;;;;;;;;;1.50;88.50;;;;;;5050597;28;20104;-76
2023/03/02 03:29:15;;;;;;;7.65;2.20;;;1.50;89.10;;;;;;5048806;28;20003;-74
2023/03/02 03:31:41;;;;;;;5.85;2.08;;;1.50;89.00;;;;;;5049754;28;20028;-75
2023/03/02 03:34:08;;;;;;;;;;;1.60;89.70;;;;;;5048392;28;20037;-75
2023/03/02 03:36:34;;;;;;;9.02;1.85;;;1.50;89.80;;;;;;5050566;28;19909;-73
2023/03/02 03:39:00;;;;;;;4.82;2.10;;;1.40;91.00;;;;;;5049864;28;20044;-74
2023/03/02 03:41:26;;;;;;;;;;;1.40;91.50;;;;;;5032262;28;20041;-73
2023/03/02 03:43:52;;;;;;;4.60;1.90;;;1.40;91.80;;;;;;5049881;28;19932;-74
2023/03/02 03:46:18;;;;;;;6.35;2.00;;;1.40;91.90;;;;;;5032058;28;20553;-72
2023/03/02 03:48:44;;;;;;;;;;;1.40;91.90;;;;;;5049817;28;20044;-74
2023/03/02 03:51:10;;;;;;;4.93;1.90;;;1.30;92.00;;;;;;5049856;28;20510;-74
2023/03/02 03:53:36;;;;;;;7.93;2.00;;;1.30;92.20;;;;;;5048527;28;20159;-77
2023/03/02 03:56:02;;;;;;;;;;;1.20;93.10;;;;;;5050234;28;20025;-74
2023/03/02 03:58:30;;;;;;;5.43;2.07;;;1.20;93.50;;;;;;5031794;28;20301;-74
2023/03/02 04:00:56;;;;;;;6.97;2.05;;;1.10;94.00;;;;;;5031516;28;20051;-73
2023/03/02 04:03:21;;;;;;;;;;;1.10;94.10;;;;;;5031958;28;20106;-74
2023/03/02 04:05:48;;;;;;;3.85;1.55;;;1.10;95.40;;;;;;5049433;28;19959;-75
2023/03/02 04:08:14;;;;;;;5.82;2.60;;;1.00;95.80;;;;;;5031372;28;20040;-74
2023/03/02 04:10:39;;;;;;;;;;;1.00;96.30;;;;;;5031801;28;20032;-74
2023/03/02 04:13:06;;;;;;;5.32;2.13;;;1.00;97.00;;;;;;5049216;28;19915;-75
2023/03/02 04:15:31;;;;;;;6.35;2.05;;;0.90;97.40;;;;;;5031335;28;20029;-74
2023/03/02 04:17:57;;;;;;;;;;;0.90;98.50;;;;;;5049807;28;20025;-74
2023/03/02 04:20:23;;;;;;;6.40;2.40;;;0.90;99.90;;;;;;5047885;28;19967;-74
2023/03/02 04:22:51;;;;;;;7.95;4.22;;;0.90;99.90;;;;;;5031205;28;20032;-75
2023/03/02 04:25:20;;;;;;;13.38;2.92;;;0.90;99.70;;;;;;5030893;28;20067;-74
2023/03/02 04:27:47;;;;;;;5.32;2.10;;;1.00;99.20;;;;;;5030998;28;20107;-74
2023/03/02 04:30:15;;;;;;;8.25;2.13;;;1.10;98.20;;;;;;5030803;28;20080;-74
2023/03/02 04:32:42;;;;;;;10.80;3.05;;;1.20;96.90;;;;;;5048819;28;20776;-74
2023/03/02 04:35:09;;;;;;;5.07;2.42;;;1.30;95.60;;;;;;5031138;28;20040;-74
2023/03/02 04:37:36;;;;;;;5.22;2.08;;;1.40;95.00;;;;;;5048892;28;20518;-74
2023/03/02 04:40:03;;;;;;;4.80;1.92;;;1.40;94.80;;;;;;5030644;28;20503;-75
2023/03/02 04:42:29;;;;;;;5.32;1.80;;;1.40;95.70;;;;;;5048811;28;20104;-74
2023/03/02 04:44:54;;;;;;;;;;;1.40;96.40;;;;;;5047453;28;20477;-75
2023/03/02 04:47:21;;;;;;;10.35;3.92;;;1.40;96.70;;;;;;5048558;28;20007;-74
2023/03/02 04:49:49;;;;;;;9.82;3.28;;;1.30;97.60;;;;;;5030706;28;20036;-74
2023/03/02 04:52:15;;;;;;;13.75;4.55;;;1.30;98.20;;;;;;5048579;28;20497;-74
2023/03/02 04:54:41;;;;;;;;;;;1.20;99.00;;;;;;5048438;28;20421;-74
2023/03/02 04:57:07;;;;;;;9.98;3.83;;;1.20;99.60;;;;;;5030957;28;19905;-75
2023/03/02 04:59:33;;;;;;;8.15;3.05;;;1.10;99.80;;;;;;5047286;28;20382;-75
2023/03/02 05:02:00;;;;;;;8.20;3.53;;;1.00;99.90;;;;;;5048064;28;20029;-74
2023/03/02 05:04:27;;;;;;;6.15;2.78;;;1.00;99.90;;;;;;5047936;28;20029;-75
2023/03/02 05:06:53;;;;;;;6.85;2.65;;;0.90;99.90;;;;;;5030394;28;20174;-75
2023/03/02 05:09:19;;;;;;;;;;;0.90;99.90;;;;;;5048710;28;20119;-74
2023/03/02 05:11:45;;;;;;;8.85;2.88;;;0.90;99.90;;;;;;5030428;28;19915;-74
2023/03/02 05:14:11;;;;;;;;;;;0.90;99.90;;;;;;5048982;28;20033;-73
2023/03/02 05:16:39;;;;;;;7.85;2.75;;;0.90;99.90;;;;;;5048222;28;20384;-74
2023/03/02 05:19:07;;;;;;;4.95;2.42;;;0.90;99.90;;;;;;5048209;28;20029;-74
2023/03/02 05:21:33;;;;;;;5.85;1.80;;;0.90;99.90;;;;;;5048223;28;20025;-75
2023/03/02 05:23:59;;;;;;;4.55;2.13;;;0.90;99.90;;;;;;5030204;28;20392;-74
2023/03/02 05:26:24;;;;;;;;;;;0.90;99.90;;;;;;5047417;28;20029;-74
2023/03/02 05:28:50;;;;;;;7.30;2.88;;;0.90;99.90;;;;;;5048216;28;20347;-75
2023/03/02 05:31:22;;;;;;;;;;;0.90;99.90;;;;;;5048635;28;20082;-74
2023/03/02 05:33:48;;;;;;;7.57;3.47;;;0.90;99.90;;;;;;5030259;28;19952;-75
2023/03/02 05:36:13;;;;;;;;;;;1.00;99.90;;;;;;5030640;28;20028;-73
2023/03/02 05:38:39;;;;;;;9.43;3.95;;;1.00;99.90;;;;;;5047221;28;19908;-73
2023/03/02 05:41:04;;;;;;;;;;;1.00;99.90;;;;;;5048152;28;20064;-72
2023/03/02 05:43:30;;;;;;;13.50;5.82;;;1.10;99.90;;;;;;5030097;28;19920;-74
2023/03/02 05:45:59;;;;;;;;;;;1.10;99.90;;;;;;5048505;28;20025;-73
2023/03/02 05:48:26;;;;;;;30.23;13.57;;;1.20;99.90;;;;;;5046518;28;19917;-74
2023/03/02 05:50:52;;;;;;;34.38;14.90;;;1.20;99.90;;;;;;5029963;28;20036;-75
2023/03/02 05:53:18;;;;;;;;;;;1.20;99.90;;;;;;5047156;28;20029;-75
2023/03/02 05:55:43;;;;;;;20.35;9.20;;;1.20;99.90;;;;;;5030532;28;20335;-73
2023/03/02 05:58:11;;;;;;;;;;;1.20;99.90;;;;;;5051125;28;20543;-74
2023/03/02 06:00:36;;;;;;;20.25;6.15;;;1.30;99.90;;;;;;5051517;28;19913;-74
2023/03/02 06:03:02;;;;;;;;;;;1.30;99.90;;;;;;5034073;28;20017;-75
2023/03/02 06:05:28;;;;;;;15.93;6.65;;;1.30;99.90;;;;;;5033747;28;19913;-74
2023/03/02 06:07:53;;;;;;;;;;;1.50;99.90;;;;;;5051982;28;20148;-75
2023/03/02 06:10:19;;;;;;;14.10;6.43;;;1.50;99.90;;;;;;5033495;28;20162;-74
2023/03/02 06:12:45;;;;;;;;;;;1.60;99.90;;;;;;5052080;28;20054;-75
2023/03/02 06:15:10;;;;;;;14.02;6.18;;;1.60;99.90;;;;;;5051707;28;20357;-73
2023/03/02 06:17:36;;;;;;;;;;;1.80;99.90;;;;;;5050685;28;20033;-75
2023/03/02 06:20:09;;;;;;;15.55;6.13;;;2.00;99.80;;;;;;5033678;28;19986;-76
2023/03/02 06:22:37;;;;;;;10.52;4.95;;;2.30;99.60;;;;;;5051211;28;20021;-75
2023/03/02 06:25:03;;;;;;;11.18;5.45;;;2.80;97.70;;;;;;5051124;28;20021;-74
2023/03/02 06:27:29;;;;;;;10.88;5.82;;;3.40;94.40;;;;;;5050174;28;20036;-75
2023/03/02 06:29:54;;;;;;;;;;;4.00;91.70;;;;;;5051664;28;20037;-74
2023/03/02 06:32:20;;;;;;;23.45;10.48;;;4.60;87.50;;;;;;5050069;28;19912;-75
2023/03/02 06:34:46;;;;;;;25.55;12.38;;;5.20;82.20;;;;;;5051159;28;20124;-74
2023/03/02 06:37:11;;;;;;;24.05;9.73;;;5.80;79.30;;;;;;5051238;28;20029;-74
2023/03/02 06:39:37;;;;;;;19.38;9.63;;;6.40;76.60;;;;;;5027428;28;20115;-74
2023/03/02 06:42:03;;;;;;;;;;;6.90;73.20;;;;;;5029804;28;20025;-74
2023/03/02 06:44:28;;;;;;;22.02;11.15;;;7.40;71.50;;;;;;5029767;28;19909;-75
2023/03/02 06:46:54;;;;;;;;;;;7.90;70.40;;;;;;5030957;28;20028;-75
2023/03/02 06:49:20;;;;;;;72.93;28.77;;;8.50;66.70;;;;;;5012904;28;19960;-73
2023/03/02 06:51:45;;;;;;;;;;;9.00;63.10;;;;;;5031386;28;20025;-75
2023/03/02 06:54:11;;;;;;;61.22;21.98;;;9.60;59.70;;;;;;5030907;28;19909;-75
2023/03/02 06:56:36;;;;;;;;;;;10.10;57.30;;;;;;5031045;28;20030;-75
2023/03/02 06:59:02;;;;;;;51.50;18.70;;;10.60;54.10;;;;;;5030917;28;19908;-74
2023/03/02 07:01:34;;;;;;;;;;;10.60;53.90;;;;;;5031274;28;20033;-75
2023/03/02 07:04:00;;;;;;;63.38;24.67;;;10.90;53.40;;;;;;5030804;28;20396;-74
2023/03/02 07:06:25;;;;;;;;;;;11.30;52.60;;;;;;5013152;28;20399;-74
2023/03/02 07:08:51;;;;;;;27.42;10.27;;;11.60;50.80;;;;;;5029204;28;19913;-74
2023/03/02 07:11:16;;;;;;;;;;;11.90;50.10;;;;;;5031127;28;20030;-74
2023/03/02 07:13:42;;;;;;;14.98;7.03;;;12.30;50.30;;;;;;5030554;28;19905;-75
2023/03/02 07:16:13;;;;;;;9.43;3.97;;;13.00;49.40;;;;;;5030404;28;20524;-75
2023/03/02 07:18:39;;;;;;;6.95;3.83;;;13.40;48.20;;;;;;5030288;28;20037;-75
2023/03/02 07:21:05;;;;;;;7.10;2.97;;;13.90;48.00;;;;;;5030537;28;20084;-75
2023/03/02 07:23:32;;;;;;;10.32;5.78;;;14.40;46.50;;;;;;5012631;28;20094;-73
2023/03/02 07:25:58;;;;;;;13.95;6.00;;;14.40;46.40;;;;;;5030461;28;20490;-75
2023/03/02 07:28:24;;;;;;;9.20;6.00;;;14.50;45.70;;;;;;5030006;28;20087;-75
2023/03/02 07:30:53;;;;;;;26.75;11.45;;;14.60;45.10;;;;;;5030374;28;20021;-75
2023/03/02 07:33:20;;;;;;;12.15;6.65;;;14.40;45.50;;;;;;5028934;28;20025;-75
2023/03/02 07:35:45;;;;;;;13.02;6.05;;;14.20;46.10;;;;;;5012215;28;20049;-74
2023/03/02 07:38:11;;;;;;;;;;;14.10;46.30;;;;;;5030211;28;20076;-73
2023/03/02 07:40:43;;;;;;;11.18;5.90;;;14.10;46.90;;;;;;5011642;28;20032;-75
2023/03/02 07:43:09;;;;;;;17.85;10.15;;;14.10;47.10;;;;;;5029825;28;20032;-74
2023/03/02 07:45:35;;;;;;;;;;;14.30;46.60;;;;;;5028937;28;20026;-75
2023/03/02 07:48:01;;;;;;;8.52;5.38;;;14.20;46.70;;;;;;5029694;28;19917;-75
2023/03/02 07:50:26;;;;;;;;;;;13.90;47.40;;;;;;5030235;28;20025;-76
2023/03/02 07:52:52;;;;;;;9.73;4.22;;;13.70;47.90;;;;;;5011467;28;19955;-74
2023/03/02 07:55:17;;;;;;;;;;;13.80;47.30;;;;;;5028768;28;20033;-73
2023/03/02 07:57:43;;;;;;;8.00;3.97;;;13.70;46.80;;;;;;5029744;28;19912;-74
2023/03/02 08:00:09;;;;;;;;;;;13.40;47.30;;;;;;5030132;28;20478;-73
2023/03/02 08:02:35;;;;;;;12.43;5.53;;;13.00;47.80;;;;;;5028733;28;19909;-75
2023/03/02 08:05:00;;;;;;;11.27;6.40;;;12.50;48.70;;;;;;5029611;28;20040;-74
2023/03/02 08:07:26;;;;;;;;;;;12.60;49.70;;;;;;5029791;28;20022;-74
2023/03/02 08:09:52;;;;;;;11.38;6.90;;;12.80;48.80;;;;;;5028181;28;19917;-74
2023/03/02 08:12:17;;;;;;;;;;;13.10;48.60;;;;;;5028689;28;20026;-74
2023/03/02 08:14:43;;;;;;;12.23;7.07;;;13.00;48.00;;;;;;5011542;28;19955;-74
2023/03/02 08:17:08;;;;;;;;;;;12.90;48.30;;;;;;5029772;28;20029;-73
2023/03/02 08:19:34;;;;;;;13.10;5.68;;;13.00;48.80;;;;;;5027625;28;19988;-75
2023/03/02 08:22:01;;;;;;;;;;;13.30;48.40;;;;;;5028239;28;20029;-75
2023/03/02 08:24:26;;;;;;;7.50;3.97;;;13.40;48.60;;;;;;5029072;28;20436;-74
2023/03/02 08:26:53;;;;;;;;;;;13.60;49.10;;;;;;5029391;28;20256;-75
2023/03/02 08:29:19;;;;;;;9.48;4.85;;;13.70;49.00;;;;;;5027729;28;19936;-75
2023/03/02 08:31:44;;;;;;;;;;;13.50;49.70;;;;;;5028366;28;20095;-75
2023/03/02 08:34:11;;;;;;;10.68;7.25;;;13.60;50.00;;;;;;5029154;28;19920;-74
2023/03/02 08:36:38;;;;;;;9.80;6.18;;;13.90;49.90;;;;;;5027618;28;20083;-75
2023/03/02 08:39:04;;;;;;;8.15;5.35;;;13.90;49.80;;;;;;5029921;28;20386;-75
2023/03/02 08:41:29;;;;;;;8.73;4.93;;;14.20;50.10;;;;;;5047326;28;20029;-75
2023/03/02 08:43:55;;;;;;;8.40;5.60;;;14.40;50.20;;;;;;5047431;28;20490;-75
2023/03/02 08:46:21;;;;;;;;;;;14.50;49.90;;;;;;5048881;28;20025;-75
2023/03/02 08:48:50;;;;;;;7.60;5.00;;;14.40;50.20;;;;;;5048416;28;19962;-75
2023/03/02 08:51:21;;;;;;;8.20;5.53;;;14.40;50.40;;;;;;5048781;28;20550;-75
2023/03/02 08:53:49;;;;;;;10.50;5.32;;;14.50;50.90;;;;;;5048557;28;20021;-75
2023/03/02 08:56:20;;;;;;;7.10;4.75;;;15.20;49.40;;;;;;5030824;28;20028;-75
2023/03/02 08:58:47;;;;;;;9.55;5.13;;;15.30;49.00;;;;;;5042079;28;20398;-75
2023/03/02 09:01:15;;;;;;;9.77;5.88;;;15.40;49.40;;;;;;5030539;28;20051;-75
2023/03/02 09:03:41;;;;;;;8.27;5.40;;;15.60;48.70;;;;;;5048604;28;20025;-75
2023/03/02 09:06:07;;;;;;;9.57;5.63;;;15.40;48.50;;;;;;5047381;28;20045;-74
2023/03/02 09:08:32;;;;;;;14.10;5.38;;;15.20;48.70;;;;;;5046870;28;20562;-74
2023/03/02 09:10:58;;;;;;;13.07;7.63;;;15.40;49.50;;;;;;5030462;28;20078;-75
2023/03/02 09:13:24;;;;;;;19.88;10.32;;;15.60;48.70;;;;;;5048080;28;20037;-75
2023/03/02 09:15:49;;;;;;;14.43;6.15;;;15.30;48.40;;;;;;5047999;28;20029;-74
2023/03/02 09:18:15;;;;;;;13.10;6.63;;;15.60;49.10;;;;;;5046885;28;20044;-74
2023/03/02 09:20:40;;;;;;;10.10;5.25;;;15.60;49.00;;;;;;5046532;28;20037;-75
2023/03/02 09:23:06;;;;;;;10.30;6.10;;;16.00;48.90;;;;;;5048245;28;20090;-75
2023/03/02 09:25:32;;;;;;;10.95;5.72;;;16.10;47.50;;;;;;5047848;28;20032;-75
2023/03/02 09:27:57;;;;;;;9.75;5.40;;;15.60;47.80;;;;;;5046833;28;20041;-75
2023/03/02 09:30:23;;;;;;;13.65;5.63;;;15.50;48.50;;;;;;5048062;28;20020;-75
2023/03/02 09:32:49;;;;;;;10.85;6.03;;;15.20;48.00;;;;;;5050876;28;20078;-75
2023/03/02 09:35:15;;;;;;;12.43;5.10;;;15.00;48.70;;;;;;5052148;28;20029;-75
2023/03/02 09:37:40;;;;;;;10.43;5.32;;;14.90;49.70;;;;;;5051042;28;20055;-74
2023/03/02 09:40:17;;;;;;;11.85;5.38;;;15.20;49.60;;;;;;5050523;28;20421;-74
2023/03/02 09:43:08;;;;;;;8.23;5.32;;;15.60;48.50;;;;;;5034173;28;20033;-75
2023/03/02 09:45:44;;;;;;;9.45;5.38;;;15.80;48.70;;;;;;5052070;28;20453;-75
2023/03/02 09:48:15;;;;;;;;;;;15.50;49.70;;;;;;5052232;28;20032;-75
2023/03/02 09:50:54;;;;;;;10.73;6.63;;;15.60;50.30;;;;;;5034265;28;19956;-75
2023/03/02 09:53:19;;;;;;;9.43;5.45;;;15.70;50.40;;;;;;5034118;28;20056;-75
2023/03/02 09:55:50;;;;;;;10.30;5.82;;;15.80;50.60;;;;;;5033843;28;20477;-75
2023/03/02 09:58:18;;;;;;;10.90;5.32;;;15.80;51.00;;;;;;5033904;28;20068;-75
2023/03/02 10:00:45;;;;;;;8.48;5.03;;;15.60;49.20;;;;;;5033636;28;20558;-74
2023/03/02 10:03:26;;;;;;;10.13;4.63;;;15.60;50.10;;;;;;5033694;28;20025;-74
2023/03/02 10:05:54;;;;;;;8.18;5.28;;;15.80;50.80;;;;;;5027782;28;20031;-74
2023/03/02 10:08:33;;;;;;;9.10;4.85;;;15.60;48.40;;;;;;5051601;28;20037;-75
2023/03/02 10:11:19;;;;;;;8.18;4.88;;;15.50;50.20;;;;;;5033728;28;20035;-74
2023/03/02 10:13:45;;;;;;;15.30;4.93;;;15.50;51.40;;;;;;5033658;28;20025;-74
2023/03/02 10:16:20;;;;;;;6.32;4.30;;;15.20;49.60;;;;;;5033599;28;20474;-74
2023/03/02 10:19:10;;;;;;;9.70;5.10;;;15.20;49.40;;;;;;5033155;28;20035;-74
2023/03/02 10:21:43;;;;;;;8.15;4.78;;;15.30;49.50;;;;;;5051383;28;20386;-74
2023/03/02 10:24:32;;;;;;;8.23;4.22;;;15.00;49.00;;;;;;5033359;28;20375;-75
2023/03/02 10:27:24;;;;;;;7.10;4.22;;;15.10;49.20;;;;;;5033273;28;20439;-75
2023/03/02 10:30:05;;;;;;;7.93;4.82;;;15.10;48.80;;;;;;5051392;28;20485;-75
2023/03/02 10:32:37;;;;;;;13.75;4.93;;;15.20;47.80;;;;;;5033623;28;20037;-75
2023/03/02 10:35:23;;;;;;;12.15;4.68;;;15.00;48.90;;;;;;5051008;28;20083;-74
2023/03/02 10:38:03;;;;;;;10.00;5.05;;;14.90;48.60;;;;;;5050902;28;20517;-74
2023/03/02 10:40:34;;;;;;;9.73;4.68;;;14.20;49.30;;;;;;5032960;28;20045;-75
2023/03/02 10:43:01;;;;;;;10.40;4.93;;;13.70;51.20;;;;;;5032609;28;20150;-74
2023/03/02 10:45:29;;;;;;;7.55;4.68;;;13.50;51.60;;;;;;5051060;28;20055;-74
2023/03/02 10:48:04;;;;;;;10.40;5.00;;;13.10;51.50;;;;;;5050761;28;20425;-73
2023/03/02 10:50:30;;;;;;;19.17;6.07;;;13.00;52.90;;;;;;5050700;28;20557;-74
2023/03/02 10:52:56;;;;;;;14.13;5.35;;;12.70;52.40;;;;;;5032547;28;20799;-74
2023/03/02 10:55:22;;;;;;;;;;;12.60;53.80;;;;;;5051322;28;20025;-73
2023/03/02 10:58:03;;;;;;;10.88;5.40;;;12.40;53.80;;;;;;5050750;28;19908;-73
2023/03/02 11:00:31;;;;;;;18.50;5.40;;;12.20;53.90;;;;;;5032946;28;20167;-73
2023/03/02 11:03:03;;;;;;;11.52;6.28;;;12.00;54.90;;;;;;5032083;28;20037;-73
2023/03/02 11:05:30;;;;;;;21.92;6.07;;;12.00;55.10;;;;;;5032696;28;20078;-74
2023/03/02 11:08:03;;;;;;;14.45;6.25;;;12.00;55.40;;;;;;5032270;28;20033;-74
2023/03/02 11:10:38;;;;;;;12.25;5.38;;;12.10;54.30;;;;;;5032642;28;20027;-75
2023/03/02 11:13:27;;;;;;;13.30;5.28;;;12.00;54.70;;;;;;5050630;28;20040;-75
2023/03/02 11:16:16;;;;;;;19.52;5.43;;;12.10;54.70;;;;;;5050470;28;20029;-74
2023/03/02 11:18:48;;;;;;;13.45;5.75;;;11.90;55.10;;;;;;5031494;28;20359;-75
2023/03/02 11:21:19;;;;;;;12.50;4.78;;;11.90;55.50;;;;;;5050175;28;20029;-74
2023/03/02 11:24:19;;;;;;;15.80;5.95;;;11.90;55.90;;;;;;5032289;28;20768;-75
2023/03/02 11:26:51;;;;;;;10.00;4.88;;;11.80;55.80;;;;;;5032094;28;20021;-74
2023/03/02 11:29:44;;;;;;;13.88;5.28;;;11.80;57.10;;;;;;5049971;28;20041;-73
2023/03/02 11:32:15;;;;;;;14.68;6.78;;;11.70;56.50;;;;;;5049817;28;20029;-74
2023/03/02 11:35:07;;;;;;;12.75;6.60;;;11.80;58.00;;;;;;5050044;28;20033;-75
2023/03/02 11:37:39;;;;;;;37.40;19.67;;;11.90;58.20;;;;;;5049281;28;20032;-74
2023/03/02 11:40:31;;;;;;;13.52;6.57;;;11.90;58.30;;;;;;5031786;28;20044;-75
2023/03/02 11:42:59;;;;;;;11.77;5.20;;;11.80;58.50;;;;;;5031795;28;20143;-75
2023/03/02 11:45:27;;;;;;;29.88;11.60;;;11.80;59.30;;;;;;5050000;28;20082;-75
2023/03/02 11:48:13;;;;;;;17.48;6.97;;;11.70;60.50;;;;;;5049786;28;20049;-74
2023/03/02 11:50:56;;;;;;;50.92;24.60;;;12.00;61.60;;;;;;5048990;28;20106;-74
2023/03/02 11:53:28;;;;;;;37.55;15.00;;;12.10;61.40;;;;;;5030995;28;20024;-74
2023/03/02 11:55:54;;;;;;;114.97;46.55;;;12.20;61.00;;;;;;5049941;28;20020;-75
2023/03/02 11:58:22;;;;;;;;;;;12.30;60.40;;;;;;5050289;28;20040;-75
2023/03/02 12:00:49;;;;;;;54.40;20.75;;;12.40;60.80;;;;;;5049453;28;19916;-75
2023/03/02 12:03:15;;;;;;;20.25;5.82;;;12.40;60.80;;;;;;5049472;28;20029;-75
2023/03/02 12:06:01;;;;;;;;;;;12.40;61.10;;;;;;5050070;28;20522;-75
2023/03/02 12:08:26;;;;;;;20.42;5.55;;;12.40;61.90;;;;;;5030943;28;19939;-75
2023/03/02 12:11:27;;;;;;;;;;;12.50;61.40;;;;;;5049728;28;20474;-73
2023/03/02 12:14:00;;;;;;;20.65;11.05;;;12.40;61.00;;;;;;5049112;28;19911;-74
2023/03/02 12:16:39;;;;;;;26.02;9.52;;;12.30;61.50;;;;;;5049284;28;20111;-73
2023/03/02 12:19:27;;;;;;;19.23;9.77;;;12.20;63.40;;;;;;5048956;28;20024;-74
2023/03/02 12:22:04;;;;;;;16.65;8.20;;;12.30;63.60;;;;;;5031079;28;20029;-74
2023/03/02 12:24:35;;;;;;;11.75;5.50;;;12.30;63.30;;;;;;5030899;28;20145;-74
2023/03/02 12:27:02;;;;;;;11.15;5.60;;;12.20;63.80;;;;;;5047738;28;20068;-74
2023/03/02 12:29:44;;;;;;;17.65;5.90;;;12.20;64.50;;;;;;5031047;28;20044;-74
2023/03/02 12:32:30;;;;;;;33.22;16.38;;;12.30;63.40;;;;;;5049041;28;20025;-75
2023/03/02 12:35:07;;;;;;;20.60;7.60;;;12.40;64.20;;;;;;5048453;28;20033;-75
2023/03/02 12:37:55;;;;;;;24.38;7.22;;;12.30;64.20;;;;;;5031048;28;20479;-75
2023/03/02 12:40:42;;;;;;;18.00;5.00;;;12.30;64.00;;;;;;5030915;28;20052;-75
2023/03/02 12:43:11;;;;;;;;;;;12.40;64.80;;;;;;5031622;28;20041;-75
2023/03/02 12:46:14;;;;;;;14.18;4.88;;;12.40;64.80;;;;;;5030763;28;20431;-75
2023/03/02 12:48:44;;;;;;;19.45;7.38;;;12.70;63.30;;;;;;5030508;28;20037;-74
2023/03/02 12:51:26;;;;;;;19.83;5.53;;;12.70;62.80;;;;;;5030966;28;20032;-74
2023/03/02 12:54:05;;;;;;;14.65;4.65;;;12.60;62.40;;;;;;5030533;28;20040;-74
2023/03/02 12:56:31;;;;;;;18.30;7.10;;;12.50;62.80;;;;;;5049035;28;20040;-75
2023/03/02 12:58:57;;;;;;;;;;;12.50;63.00;;;;;;5048864;28;20025;-74
2023/03/02 13:01:25;;;;;;;20.25;7.18;;;12.40;63.30;;;;;;5047261;28;19909;-74
2023/03/02 13:03:52;;;;;;;21.10;7.40;;;12.40;63.80;;;;;;5048569;28;20025;-74
2023/03/02 13:06:19;;;;;;;23.95;7.13;;;12.70;62.60;;;;;;5048385;28;20033;-74
2023/03/02 13:08:48;;;;;;;12.73;6.18;;;12.70;62.50;;;;;;5030308;28;20464;-75
2023/03/02 13:11:27;;;;;;;19.13;6.70;;;12.70;62.20;;;;;;5030132;28;20391;-74
2023/03/02 13:13:53;;;;;;;15.93;5.40;;;12.80;61.60;;;;;;5048253;28;20029;-74
2023/03/02 13:16:21;;;;;;;;;;;12.80;61.30;;;;;;5048797;28;20757;-73
2023/03/02 13:18:48;;;;;;;17.30;6.22;;;12.70;60.80;;;;;;5048162;28;19933;-74